Ocean Spirit of Moray — MVXF5 — position and weather

sailwx.info

Track history (hours):
 
Tides and Currents Weather Stations Pressure Air Temp Water Temp Dewpoint Dewpoint Depression Visibility Wind Speed Wind Dir Waves Ship Positions

Ocean Spirit of Moray (United Kingdom)

Ship's website: http://www.gordonstoun.org.uk/

Last reported at 2016-Jul-21 17:21 UTC. Time now 2016-Jul-25 00:21 UTC.
Position N 38°42' W 009°14'.

Length 24 m; draft 3 m.

Type: Sailing vessel. MMSI: 232007590.

Date/timePositionNaut miles runAvg speedWind from/ knotsBaromVisibWave heightAir tempDewpointWater temp
2016-Jul-21 17:21N 38°42' W 009°14'0 0.0
2016-Jul-21 14:32N 38°42' W 009°14'0 0.0
2016-Jul-21 13:33N 38°42' W 009°14'1 0.4
2016-Jul-21 12:23N 38°41' W 009°14'8 7.3
2016-Jul-21 11:16N 38°42' W 009°24'0 0.1
2016-Jul-21 10:28N 38°42' W 009°24'0 0.2
2016-Jul-21 08:31N 38°42' W 009°25'0 0.0
2016-Jul-21 07:20N 38°42' W 009°25'0 0.0
2016-Jul-21 06:18N 38°42' W 009°25'0 0.0
2016-Jul-21 05:26N 38°42' W 009°25'0 0.0
2016-Jul-21 04:26N 38°42' W 009°25'0 0.0
2016-Jul-21 03:33N 38°42' W 009°25'0 0.0
2016-Jul-21 02:32N 38°42' W 009°25'0 0.0
2016-Jul-21 01:33N 38°42' W 009°25'0 0.0
2016-Jul-20 23:04N 38°42' W 009°25'0 0.0
2016-Jul-20 22:33N 38°42' W 009°25'0 0.0
2016-Jul-20 21:28N 38°42' W 009°25'0 0.0
2016-Jul-20 14:22N 38°42' W 009°25'0 0.0
2016-Jul-20 13:15N 38°42' W 009°25'0 0.0
2016-Jul-20 10:25N 38°42' W 009°25'0 0.0
2016-Jul-20 08:29N 38°42' W 009°25'0 0.0
2016-Jul-20 07:11N 38°42' W 009°25'0 0.0
2016-Jul-20 04:29N 38°42' W 009°25'0 0.0
2016-Jul-20 03:33N 38°42' W 009°25'0 0.0
2016-Jul-20 02:28N 38°42' W 009°25'0 0.0
2016-Jul-20 01:33N 38°42' W 009°25'1 1.2
2016-Jul-20 00:33N 38°41' W 009°26'  
2016-Jul-13 13:17N 50°08' W 003°42'7 7.9
2016-Jul-13 12:27N 50°13' W 003°35'7 8.1
2016-Jul-13 11:34N 50°18' W 003°28'7 7.2
2016-Jul-13 10:34N 50°24' W 003°21'4 4.3
2016-Jul-13 09:33N 50°27' W 003°27'2 1.8
2016-Jul-13 08:32N 50°27' W 003°29'0 0.0
2016-Jul-13 07:30N 50°27' W 003°30'0 0.0
2016-Jul-13 06:31N 50°27' W 003°30'5 5.5
2016-Jul-13 05:33N 50°26' W 003°21'7 7.3
2016-Jul-13 04:33N 50°26' W 003°10'  
Track history (hours):
 
Tides and Currents Weather Stations Pressure Air Temp Water Temp Dewpoint Dewpoint Depression Visibility Wind Speed Wind Dir Waves Ship Positions

Ocean Spirit of Moray (United Kingdom)

Ship's website: http://www.gordonstoun.org.uk/

Last reported at 2016-Jul-21 17:21 UTC. Time now 2016-Jul-25 00:21 UTC.
Position N 38°42' W 009°14'.

Length 24 m; draft 3 m.

Type: Sailing vessel. MMSI: 232007590.

Date/timePositionNaut miles runAvg speedWind from/ knotsBaromVisibWave heightAir tempDewpointWater temp
2016-Jul-21 17:21N 38°42' W 009°14'0 0.0
2016-Jul-21 14:32N 38°42' W 009°14'0 0.0
2016-Jul-21 13:33N 38°42' W 009°14'1 0.4
2016-Jul-21 12:23N 38°41' W 009°14'8 7.3
2016-Jul-21 11:16N 38°42' W 009°24'0 0.1
2016-Jul-21 10:28N 38°42' W 009°24'0 0.2
2016-Jul-21 08:31N 38°42' W 009°25'0 0.0
2016-Jul-21 07:20N 38°42' W 009°25'0 0.0
2016-Jul-21 06:18N 38°42' W 009°25'0 0.0
2016-Jul-21 05:26N 38°42' W 009°25'0 0.0
2016-Jul-21 04:26N 38°42' W 009°25'0 0.0
2016-Jul-21 03:33N 38°42' W 009°25'0 0.0
2016-Jul-21 02:32N 38°42' W 009°25'0 0.0
2016-Jul-21 01:33N 38°42' W 009°25'0 0.0
2016-Jul-20 23:04N 38°42' W 009°25'0 0.0
2016-Jul-20 22:33N 38°42' W 009°25'0 0.0
2016-Jul-20 21:28N 38°42' W 009°25'0 0.0
2016-Jul-20 14:22N 38°42' W 009°25'0 0.0
2016-Jul-20 13:15N 38°42' W 009°25'0 0.0
2016-Jul-20 10:25N 38°42' W 009°25'0 0.0
2016-Jul-20 08:29N 38°42' W 009°25'0 0.0
2016-Jul-20 07:11N 38°42' W 009°25'0 0.0
2016-Jul-20 04:29N 38°42' W 009°25'0 0.0
2016-Jul-20 03:33N 38°42' W 009°25'0 0.0
2016-Jul-20 02:28N 38°42' W 009°25'0 0.0
2016-Jul-20 01:33N 38°42' W 009°25'1 1.2
2016-Jul-20 00:33N 38°41' W 009°26'  
2016-Jul-13 13:17N 50°08' W 003°42'7 7.9
2016-Jul-13 12:27N 50°13' W 003°35'7 8.1
2016-Jul-13 11:34N 50°18' W 003°28'7 7.2
2016-Jul-13 10:34N 50°24' W 003°21'4 4.3
2016-Jul-13 09:33N 50°27' W 003°27'2 1.8
2016-Jul-13 08:32N 50°27' W 003°29'0 0.0
2016-Jul-13 07:30N 50°27' W 003°30'0 0.0
2016-Jul-13 06:31N 50°27' W 003°30'5 5.5
2016-Jul-13 05:33N 50°26' W 003°21'7 7.3
2016-Jul-13 04:33N 50°26' W 003°10'  

Dump ship's entire track history